Time;durP1;ratioP1;P1;durP2;ratioP2;P2;SDS_P1;SDS_P2;PMS_P1;PMS_P2;Temp;Humidity;BMP_temperature;BMP_pressure;BME280_temperature;BME280_humidity;BME280_pressure;Samples;Min_cycle;Max_cycle;Signal;HPM_P1;HPM_P2
2021/05/25 00:00:19;;;;;;;7.65;4.10;;;;;;;19.93;61.66;94301.84;5035202;28;20033;-89
2021/05/25 00:02:46;;;;;;;6.13;4.00;;;;;;;19.85;61.79;94282.06;5036857;28;20420;-90
2021/05/25 00:05:21;;;;;;;14.30;4.65;;;;;;;19.74;61.33;94266.75;5050009;28;20122;-88
2021/05/25 00:07:46;;;;;;;11.55;4.22;;;;;;;19.85;61.41;94279.38;5032978;28;20048;-89
2021/05/25 00:10:13;;;;;;;7.68;4.00;;;;;;;19.79;61.98;94285.31;5033576;28;20032;-90
2021/05/25 00:12:39;;;;;;;10.25;4.00;;;;;;;19.65;62.22;94282.13;5033721;28;20029;-89
2021/05/25 00:15:08;;;;;;;12.70;5.40;;;;;;;19.55;62.92;94271.88;5034827;28;20037;-85
2021/05/25 00:17:34;;;;;;;8.45;4.57;;;;;;;19.58;63.69;94292.63;5037885;28;20040;-89
2021/05/25 00:19:59;;;;;;;14.27;5.18;;;;;;;19.50;63.62;94278.19;5033152;28;20041;-89
2021/05/25 00:22:25;;;;;;;13.07;5.15;;;;;;;19.38;64.11;94276.25;5035209;28;20735;-90
2021/05/25 00:24:50;;;;;;;9.10;4.53;;;;;;;19.27;64.50;94266.28;5035184;28;20029;-89
2021/05/25 00:27:16;;;;;;;12.35;4.65;;;;;;;19.22;64.93;94278.00;5033666;28;20621;-90
2021/05/25 00:29:41;;;;;;;9.60;4.22;;;;;;;19.16;65.62;94278.53;5040276;28;20055;-89
2021/05/25 00:32:06;;;;;;;8.13;4.32;;;;;;;19.21;66.21;94287.16;5031383;28;20067;-90
2021/05/25 00:34:32;;;;;;;8.45;4.72;;;;;;;19.20;66.21;94282.91;5034017;28;20090;-90
2021/05/25 00:36:57;;;;;;;8.68;4.63;;;;;;;19.13;66.42;94266.59;5035470;28;20551;-90
2021/05/25 00:39:23;;;;;;;9.35;5.05;;;;;;;19.03;66.39;94269.69;5033390;28;20047;-85
2021/05/25 00:41:48;;;;;;;6.25;4.32;;;;;;;18.89;67.27;94258.47;5033149;28;20437;-89
2021/05/25 00:44:14;;;;;;;7.13;5.60;;;;;;;18.76;67.81;94222.84;5032631;28;20333;-89
2021/05/25 00:46:39;;;;;;;7.90;4.88;;;;;;;18.64;68.08;94208.59;5033436;28;20575;-89
2021/05/25 00:49:06;;;;;;;6.72;5.32;;;;;;;18.56;68.23;94197.66;5036216;28;20485;-89
2021/05/25 00:51:32;;;;;;;13.70;5.95;;;;;;;18.80;68.17;94231.78;5036775;28;20402;-88
2021/05/25 00:53:58;;;;;;;9.73;4.80;;;;;;;18.66;68.47;94217.09;5032190;28;20073;-90
2021/05/25 00:56:24;;;;;;;11.90;5.22;;;;;;;18.77;68.44;94235.09;5032777;28;20084;-90
2021/05/25 00:58:51;;;;;;;11.27;6.32;;;;;;;18.67;68.51;94218.66;5030764;28;20047;-90
2021/05/25 01:01:18;;;;;;;9.98;5.32;;;;;;;18.87;68.04;94241.94;5028092;28;20025;-89
2021/05/25 01:03:43;;;;;;;9.57;5.28;;;;;;;18.67;68.44;94234.72;5034930;28;20041;-90
2021/05/25 01:06:09;;;;;;;13.65;5.72;;;;;;;18.59;69.29;94269.25;5031169;28;20040;-89
2021/05/25 01:08:37;;;;;;;11.73;5.88;;;;;;;18.49;69.10;94256.25;5033746;28;20494;-88
2021/05/25 01:11:05;;;;;;;8.45;5.22;;;;;;;18.62;68.86;94264.38;5032244;28;20264;-88
2021/05/25 01:13:40;;;;;;;7.45;6.57;;;;;;;18.63;69.40;94268.59;5036746;28;20034;-88
2021/05/25 01:16:06;;;;;;;13.70;6.78;;;;;;;18.76;69.14;94270.25;5033061;28;20020;-88
2021/05/25 01:18:32;;;;;;;12.27;6.25;;;;;;;18.67;69.37;94251.56;5035948;28;20544;-89
2021/05/25 01:20:58;;;;;;;8.98;6.50;;;;;;;18.72;69.79;94272.00;5033219;28;20133;-88
2021/05/25 01:23:24;;;;;;;12.70;6.32;;;;;;;18.70;69.65;94271.53;5031090;28;20080;-89
2021/05/25 01:25:50;;;;;;;13.60;7.63;;;;;;;18.79;69.82;94272.25;5031821;28;20064;-89
2021/05/25 01:28:19;;;;;;;13.18;7.63;;;;;;;18.68;70.29;94257.69;5032380;28;20057;-91
2021/05/25 01:30:48;;;;;;;9.90;8.07;;;;;;;18.66;70.86;94260.72;5036561;28;20025;-89
2021/05/25 01:33:14;;;;;;;12.70;8.32;;;;;;;18.65;70.91;94259.16;5030063;28;20555;-90
2021/05/25 01:35:39;;;;;;;14.27;8.65;;;;;;;18.64;71.22;94267.50;5036040;28;20045;-90
2021/05/25 01:38:08;;;;;;;9.82;8.07;;;;;;;18.57;71.39;94241.25;5033645;28;20037;-89
2021/05/25 01:40:33;;;;;;;11.68;7.70;;;;;;;18.59;71.26;94245.16;5033663;28;20124;-91
2021/05/25 01:42:59;;;;;;;15.85;7.75;;;;;;;18.24;71.95;94205.59;5032883;28;20414;-91
2021/05/25 01:45:27;;;;;;;14.27;7.28;;;;;;;18.30;71.84;94210.44;5047703;28;20508;-90
2021/05/25 01:47:54;;;;;;;9.00;6.68;;;;;;;18.44;72.33;94245.72;5051923;28;20494;-91
2021/05/25 01:50:20;;;;;;;13.73;7.47;;;;;;;18.35;72.37;94250.38;5031993;28;20033;-90
2021/05/25 01:52:53;;;;;;;11.30;7.60;;;;;;;18.35;72.51;94254.94;5032525;28;20163;-89
2021/05/25 01:55:27;;;;;;;15.55;6.95;;;;;;;18.36;72.19;94243.13;5030970;28;20057;-90
2021/05/25 01:57:58;;;;;;;13.50;6.97;;;;;;;18.22;72.24;94223.88;5039920;28;20032;-90
2021/05/25 02:00:24;;;;;;;13.40;7.18;;;;;;;18.30;72.24;94236.41;5033375;28;20041;-91
2021/05/25 02:02:49;;;;;;;10.13;7.13;;;;;;;18.24;72.95;94233.13;5032453;28;20056;-90
2021/05/25 02:05:14;;;;;;;10.80;7.30;;;;;;;18.05;72.93;94216.72;5038450;28;20037;-89
2021/05/25 02:07:45;;;;;;;9.60;7.90;;;;;;;18.04;73.11;94218.63;5030351;28;20045;-88
2021/05/25 02:10:25;;;;;;;8.27;7.40;;;;;;;17.87;73.40;94212.59;5032833;28;20052;-91
2021/05/25 02:12:52;;;;;;;14.18;7.82;;;;;;;17.86;74.31;94219.06;5034454;28;20095;-90
2021/05/25 02:15:18;;;;;;;15.95;7.57;;;;;;;17.83;73.83;94198.31;5031601;28;20528;-90
2021/05/25 02:17:44;;;;;;;10.20;7.57;;;;;;;17.91;73.62;94208.97;5032763;28;20061;-90
2021/05/25 02:20:10;;;;;;;11.30;7.97;;;;;;;18.01;73.84;94226.53;5031089;28;20489;-90
2021/05/25 02:22:35;;;;;;;15.60;7.80;;;;;;;18.03;73.78;94229.66;5031845;28;20039;-90
2021/05/25 02:25:01;;;;;;;12.77;7.70;;;;;;;17.85;73.70;94199.56;5045616;28;20025;-85
2021/05/25 02:27:26;;;;;;;9.25;7.95;;;;;;;17.76;74.07;94185.47;5034734;28;20394;-89
2021/05/25 02:29:52;;;;;;;11.68;7.97;;;;;;;17.97;73.95;94222.94;5031618;28;20037;-89
2021/05/25 02:32:17;;;;;;;11.50;8.73;;;;;;;17.92;74.39;94215.09;5031005;28;20033;-90
2021/05/25 02:34:42;;;;;;;16.15;9.25;;;;;;;18.01;73.85;94219.28;5032606;28;20041;-89
2021/05/25 02:37:08;;;;;;;15.57;9.13;;;;;;;17.86;74.04;94192.31;5029517;28;20053;-89
2021/05/25 02:39:33;;;;;;;16.83;8.77;;;;;;;17.85;73.79;94193.41;5035489;28;20014;-89
2021/05/25 02:41:59;;;;;;;11.48;7.88;;;;;;;17.92;74.28;94215.09;5033748;28;20305;-88
2021/05/25 02:44:24;;;;;;;14.13;7.72;;;;;;;17.88;74.11;94212.28;5036398;28;20779;-89
2021/05/25 02:46:49;;;;;;;13.13;7.53;;;;;;;17.70;74.18;94182.19;5050775;28;20044;-89
2021/05/25 02:49:15;;;;;;;13.20;9.02;;;;;;;17.90;74.28;94222.66;5032876;28;20787;-88
2021/05/25 02:51:40;;;;;;;10.90;7.40;;;;;;;17.82;74.50;94224.28;5036751;28;20029;-88
2021/05/25 02:54:06;;;;;;;16.15;9.43;;;;;;;17.80;74.69;94218.44;5032913;28;20045;-88
2021/05/25 02:56:31;;;;;;;12.95;9.95;;;;;;;17.75;74.57;94219.41;5035705;28;20037;-89
2021/05/25 02:58:56;;;;;;;11.88;8.48;;;;;;;17.78;74.72;94227.91;5032918;28;20033;-87
2021/05/25 03:01:22;;;;;;;14.63;10.63;;;;;;;17.82;75.44;94231.50;5040546;28;20036;-88
2021/05/25 03:03:47;;;;;;;21.65;12.50;;;;;;;17.70;75.27;94214.25;5040768;28;20037;-88
2021/05/25 03:06:13;;;;;;;16.67;11.73;;;;;;;17.72;75.48;94213.94;5034974;28;20038;-89
2021/05/25 03:08:38;;;;;;;13.80;11.68;;;;;;;17.83;75.34;94209.81;5034989;28;20029;-88
2021/05/25 03:11:04;;;;;;;21.10;11.68;;;;;;;17.78;75.19;94199.28;5034253;28;20128;-88
2021/05/25 03:13:29;;;;;;;19.30;11.13;;;;;;;17.86;74.94;94205.69;5033072;28;20028;-87
2021/05/25 03:15:55;;;;;;;12.15;10.07;;;;;;;17.82;75.28;94210.91;5051045;28;20025;-88
2021/05/25 03:18:21;;;;;;;10.73;8.60;;;;;;;17.92;74.91;94210.53;5035130;28;20037;-88
2021/05/25 03:20:48;;;;;;;14.63;9.32;;;;;;;18.01;74.49;94215.81;5034164;28;20443;-89
2021/05/25 03:23:15;;;;;;;12.80;10.38;;;;;;;18.10;74.64;94221.91;5031453;28;20040;-88
2021/05/25 03:25:42;;;;;;;17.90;11.20;;;;;;;18.34;74.46;94238.09;5034905;28;20044;-88
2021/05/25 03:28:08;;;;;;;16.63;14.07;;;;;;;18.38;74.16;94228.28;5049075;28;20060;-89
2021/05/25 03:30:35;;;;;;;15.80;14.20;;;;;;;18.46;73.76;94226.69;5036930;28;20040;-86
2021/05/25 03:33:01;;;;;;;17.17;13.85;;;;;;;18.47;73.99;94218.31;5047188;28;20064;-88
2021/05/25 03:35:27;;;;;;;18.08;14.75;;;;;;;18.75;72.99;94233.88;5036903;28;20112;-90
2021/05/25 03:37:53;;;;;;;20.95;14.93;;;;;;;18.79;72.95;94248.16;5032225;28;20053;-88
2021/05/25 03:40:19;;;;;;;17.52;14.82;;;;;;;18.83;73.03;94252.53;5037881;28;20025;-88
2021/05/25 03:42:46;;;;;;;16.05;12.80;;;;;;;18.85;72.21;94222.75;5034734;28;20033;-88
2021/05/25 03:45:12;;;;;;;17.45;14.38;;;;;;;18.99;71.25;94242.78;5032157;28;20037;-88
2021/05/25 03:47:38;;;;;;;17.33;13.80;;;;;;;19.09;71.27;94262.22;5033744;28;20037;-87
2021/05/25 03:50:07;;;;;;;41.72;14.18;;;;;;;19.15;70.94;94267.06;5033154;28;20099;-88
2021/05/25 03:52:41;;;;;;;20.25;14.60;;;;;;;19.29;70.45;94258.72;5038118;28;20040;-88
2021/05/25 03:55:14;;;;;;;24.08;15.52;;;;;;;19.16;70.57;94235.66;5032882;28;20045;-87
2021/05/25 04:00:06;;;;;;;20.27;14.70;;;;;;;19.19;70.24;94230.44;5034097;28;20044;-87
2021/05/25 04:02:32;;;;;;;19.88;15.45;;;;;;;19.51;69.52;94257.53;5032265;28;20041;-88
2021/05/25 04:04:58;;;;;;;21.77;16.08;;;;;;;19.73;68.79;94265.19;5038360;28;20582;-88
2021/05/25 04:07:23;;;;;;;22.10;16.25;;;;;;;19.85;68.38;94273.22;5035776;28;20050;-88
2021/05/25 04:09:49;;;;;;;19.98;16.30;;;;;;;19.91;68.01;94247.75;5035894;28;20026;-88
2021/05/25 04:12:14;;;;;;;19.67;16.23;;;;;;;19.98;68.20;94249.88;5031189;28;20036;-89
2021/05/25 04:14:39;;;;;;;19.83;16.00;;;;;;;19.84;68.48;94218.03;5034151;28;20049;-87
2021/05/25 04:17:05;;;;;;;27.35;17.63;;;;;;;19.97;68.16;94221.47;5033760;28;20516;-88
2021/05/25 04:19:30;;;;;;;23.85;17.08;;;;;;;20.04;67.31;94221.69;5033167;28;20040;-89
2021/05/25 04:21:56;;;;;;;24.10;17.27;;;;;;;20.28;66.44;94246.59;5034395;28;20550;-91
2021/05/25 04:24:21;;;;;;;24.27;20.35;;;;;;;20.52;66.33;94258.44;5037801;28;20116;-88
2021/05/25 04:26:47;;;;;;;21.70;18.10;;;;;;;20.86;65.21;94259.81;5035201;28;20472;-89
2021/05/25 04:29:12;;;;;;;25.00;16.35;;;;;;;21.15;63.56;94259.50;5031629;28;20048;-89
2021/05/25 04:31:39;;;;;;;20.23;16.23;;;;;;;21.25;61.28;94247.44;5033303;28;20492;-90
2021/05/25 04:34:05;;;;;;;25.17;16.45;;;;;;;21.29;61.95;94269.84;5031750;28;20025;-87
2021/05/25 04:36:30;;;;;;;23.08;17.00;;;;;;;21.48;62.30;94283.41;5035702;28;20062;-88
2021/05/25 04:38:55;;;;;;;22.83;17.10;;;;;;;21.52;62.30;94274.28;5034054;28;20040;-88
2021/05/25 04:41:21;;;;;;;21.85;15.90;;;;;;;21.88;61.08;94278.66;5031465;28;20037;-88
2021/05/25 04:43:46;;;;;;;23.25;16.52;;;;;;;22.25;59.71;94259.53;5033832;28;20041;-88
2021/05/25 04:46:12;;;;;;;22.38;14.52;;;;;;;23.13;56.04;94284.91;5033184;28;20028;-87
2021/05/25 04:48:38;;;;;;;22.90;15.13;;;;;;;23.57;54.55;94274.59;5035374;28;20537;-89
2021/05/25 04:51:04;;;;;;;20.55;14.20;;;;;;;24.11;53.60;94282.44;5031042;28;20038;-87
2021/05/25 04:53:29;;;;;;;16.00;14.35;;;;;;;24.10;52.86;94262.75;5032338;28;20048;-89
2021/05/25 04:55:55;;;;;;;15.68;13.13;;;;;;;24.64;50.09;94255.47;5031385;28;20107;-90
2021/05/25 04:58:20;;;;;;;19.73;14.13;;;;;;;24.28;49.91;94235.28;5033996;28;20037;-93
2021/05/25 05:00:46;;;;;;;15.27;13.65;;;;;;;24.60;48.77;94269.72;5036596;28;20029;-89
2021/05/25 05:03:11;;;;;;;23.17;14.88;;;;;;;24.32;50.08;94274.72;5032307;28;20040;-91
2021/05/25 05:05:37;;;;;;;18.25;13.80;;;;;;;24.49;50.24;94279.59;5032156;28;20502;-92
2021/05/25 05:08:06;;;;;;;21.83;13.90;;;;;;;24.56;50.09;94285.09;5034484;28;20049;-93
2021/05/25 05:10:31;;;;;;;23.30;12.93;;;;;;;24.99;48.55;94264.84;5034085;28;20072;-93
2021/05/25 05:12:57;;;;;;;22.25;13.25;;;;;;;25.61;47.07;94275.22;5036766;28;20051;-91
2021/05/25 05:15:22;;;;;;;16.50;12.98;;;;;;;25.48;46.71;94301.72;5033940;28;20132;-90
2021/05/25 05:17:49;;;;;;;15.88;12.73;;;;;;;24.88;48.06;94263.16;5019743;28;20227;-90
2021/05/25 05:20:15;;;;;;;17.40;13.60;;;;;;;25.00;48.61;94276.44;5032492;28;20519;-88
2021/05/25 05:22:40;;;;;;;17.75;14.52;;;;;;;25.00;48.12;94292.66;5033005;28;20040;-87
2021/05/25 05:25:08;;;;;;;20.35;14.25;;;;;;;25.00;48.41;94298.06;5029323;28;20478;-90
2021/05/25 05:27:33;;;;;;;19.33;15.43;;;;;;;24.24;49.99;94299.28;5040837;28;20014;-90
2021/05/25 05:29:59;;;;;;;19.17;14.35;;;;;;;24.12;50.05;94292.13;5032812;28;20550;-91
2021/05/25 05:32:24;;;;;;;20.15;13.60;;;;;;;24.01;50.53;94301.97;5031821;28;20037;-89
2021/05/25 05:34:50;;;;;;;17.42;12.85;;;;;;;24.23;49.46;94284.22;5033252;28;20131;-93
2021/05/25 05:37:15;;;;;;;28.55;13.13;;;;;;;24.50;49.04;94294.66;5032218;28;20595;-94
2021/05/25 05:39:41;;;;;;;20.55;12.60;;;;;;;24.69;47.91;94260.56;5037176;28;20017;-95
2021/05/25 05:42:07;;;;;;;21.08;11.95;;;;;;;25.09;48.01;94303.97;5028960;28;20336;-91
2021/05/25 05:44:32;;;;;;;21.27;10.35;;;;;;;25.37;46.52;94290.00;5033146;28;20064;-92
2021/05/25 05:46:57;;;;;;;13.40;10.52;;;;;;;25.87;45.22;94275.88;5032986;28;20043;-91
2021/05/25 05:49:23;;;;;;;15.52;10.13;;;;;;;26.10;44.41;94283.78;5033514;28;20102;-93
2021/05/25 05:51:51;;;;;;;14.35;10.07;;;;;;;26.86;43.23;94294.84;5033419;28;20412;-85
2021/05/25 05:54:17;;;;;;;14.68;10.30;;;;;;;26.48;43.71;94300.75;5031704;28;20047;-90
2021/05/25 05:56:44;;;;;;;16.27;9.68;;;;;;;26.86;43.40;94302.16;5033317;28;20542;-91
2021/05/25 05:59:09;;;;;;;19.80;10.10;;;;;;;26.73;43.45;94288.91;5030836;28;20175;-89
2021/05/25 06:01:35;;;;;;;14.70;9.93;;;;;;;26.72;43.47;94311.00;5032063;28;20037;-87
2021/05/25 06:04:00;;;;;;;16.23;11.13;;;;;;;26.13;44.47;94298.53;5032043;28;20346;-93
2021/05/25 06:06:25;;;;;;;14.05;10.05;;;;;;;26.29;44.11;94297.13;5034834;28;20132;-92
2021/05/25 06:08:51;;;;;;;15.25;10.32;;;;;;;26.53;44.08;94292.28;5031063;28;20048;-92
2021/05/25 06:11:17;;;;;;;15.57;10.73;;;;;;;26.40;44.81;94270.09;5032473;28;20051;-94
2021/05/25 06:13:42;;;;;;;14.13;9.65;;;;;;;27.09;43.37;94294.53;5033782;28;20037;-90
2021/05/25 06:16:08;;;;;;;12.70;9.63;;;;;;;27.81;41.55;94286.25;5033590;28;20029;-92
2021/05/25 06:18:35;;;;;;;14.00;8.75;;;;;;;28.15;40.65;94256.06;5040113;28;20025;-91
2021/05/25 06:21:03;;;;;;;12.90;8.55;;;;;;;28.01;41.11;94279.31;5034638;28;20044;-92
2021/05/25 06:23:29;;;;;;;11.50;8.85;;;;;;;28.33;40.09;94289.44;5034889;28;20072;-93
2021/05/25 06:25:56;;;;;;;14.45;10.30;;;;;;;28.82;39.02;94294.88;5033463;28;20136;-86
2021/05/25 06:28:22;;;;;;;12.70;8.18;;;;;;;28.66;40.06;94296.41;5034414;28;20051;-87
2021/05/25 06:30:47;;;;;;;12.10;7.60;;;;;;;28.47;39.71;94300.31;5038797;28;20033;-86
2021/05/25 06:33:13;;;;;;;12.50;8.00;;;;;;;28.23;40.43;94298.38;5035210;28;20045;-87
2021/05/25 06:35:38;;;;;;;12.90;8.88;;;;;;;28.00;41.13;94294.06;5040912;28;20029;-92
2021/05/25 06:38:04;;;;;;;13.13;8.35;;;;;;;27.55;41.35;94256.75;5051793;28;20037;-95
2021/05/25 06:40:30;;;;;;;12.65;7.82;;;;;;;27.55;41.68;94295.53;5036993;28;20045;-85
2021/05/25 06:42:56;;;;;;;15.80;8.93;;;;;;;27.40;42.42;94282.28;5035829;28;20032;-90
2021/05/25 06:45:21;;;;;;;14.38;8.35;;;;;;;27.99;41.25;94281.66;5035323;28;20129;-90
2021/05/25 06:47:47;;;;;;;11.90;8.75;;;;;;;28.32;39.95;94280.53;5036812;28;20045;-93
2021/05/25 06:50:14;;;;;;;11.50;7.60;;;;;;;28.41;41.06;94280.13;5036136;28;20163;-90
2021/05/25 06:52:41;;;;;;;13.80;9.57;;;;;;;28.93;40.08;94277.75;5035384;28;20032;-92
2021/05/25 06:55:08;;;;;;;14.60;9.68;;;;;;;29.15;38.71;94269.09;5033602;28;20069;-89
2021/05/25 06:57:33;;;;;;;20.10;8.00;;;;;;;29.80;38.56;94264.13;5037965;28;20403;-89
2021/05/25 06:59:59;;;;;;;14.43;7.15;;;;;;;29.82;37.35;94261.75;5035951;28;20041;-92
2021/05/25 07:02:24;;;;;;;8.98;7.38;;;;;;;30.80;35.87;94249.28;5035450;28;20454;-89
2021/05/25 07:04:54;;;;;;;12.05;7.47;;;;;;;30.65;35.78;94247.88;5056042;28;20045;-90
2021/05/25 07:07:20;;;;;;;10.25;7.82;;;;;;;30.96;35.44;94256.94;5034354;28;20036;-89
2021/05/25 07:09:46;;;;;;;12.18;8.15;;;;;;;30.93;35.13;94263.22;5038027;28;20013;-87
2021/05/25 07:12:12;;;;;;;12.10;9.15;;;;;;;30.81;36.17;94259.03;5033712;28;20520;-89
2021/05/25 07:14:38;;;;;;;18.52;11.25;;;;;;;30.42;36.53;94237.56;5035094;28;20561;-92
2021/05/25 07:17:04;;;;;;;15.07;11.25;;;;;;;30.21;37.46;94258.78;5032897;28;20489;-91
2021/05/25 07:19:30;;;;;;;11.85;10.40;;;;;;;30.10;37.94;94242.53;5036333;28;20048;-91
2021/05/25 07:21:55;;;;;;;10.13;9.13;;;;;;;29.95;37.74;94249.28;5040975;28;20484;-91
2021/05/25 07:24:21;;;;;;;12.30;10.98;;;;;;;29.14;38.89;94234.09;5039205;28;20393;-88
2021/05/25 07:26:46;;;;;;;13.13;10.00;;;;;;;28.97;40.11;94234.97;5034148;28;20049;-92
2021/05/25 07:29:12;;;;;;;13.43;11.13;;;;;;;28.49;39.67;94232.75;5053478;28;20071;-89
2021/05/25 07:31:37;;;;;;;17.70;11.55;;;;;;;28.26;40.64;94244.00;5036769;28;20041;-92
2021/05/25 07:34:03;;;;;;;16.35;12.13;;;;;;;28.62;40.75;94241.25;5031215;28;20033;-92
2021/05/25 07:36:29;;;;;;;16.05;12.02;;;;;;;28.20;41.25;94242.84;5036929;28;20032;-88
2021/05/25 07:38:55;;;;;;;14.13;11.07;;;;;;;27.86;41.42;94239.72;5034533;28;20044;-91
2021/05/25 07:41:20;;;;;;;15.48;10.95;;;;;;;27.88;42.49;94247.47;5035065;28;20127;-89
2021/05/25 07:43:45;;;;;;;12.93;10.80;;;;;;;27.45;42.34;94246.63;5034966;28;20033;-90
2021/05/25 07:46:12;;;;;;;21.40;10.55;;;;;;;27.50;42.98;94243.56;5034871;28;20035;-91
2021/05/25 07:48:37;;;;;;;22.52;11.10;;;;;;;27.93;42.11;94256.03;5038041;28;20025;-90
2021/05/25 07:51:04;;;;;;;9.85;8.85;;;;;;;27.79;42.06;94236.22;5034124;28;20952;-92
2021/05/25 07:53:29;;;;;;;11.52;9.57;;;;;;;27.68;41.70;94228.06;5031500;28;20953;-91
2021/05/25 07:55:55;;;;;;;10.27;9.23;;;;;;;27.36;42.04;94247.00;5032052;28;20045;-90
2021/05/25 07:58:21;;;;;;;15.23;9.65;;;;;;;27.15;43.43;94252.34;5033158;28;20042;-92
2021/05/25 08:00:46;;;;;;;14.32;10.65;;;;;;;26.97;43.75;94249.56;5035535;28;20103;-91
2021/05/25 08:03:12;;;;;;;17.42;10.73;;;;;;;26.26;44.79;94222.03;5034139;28;20047;-88
2021/05/25 08:05:38;;;;;;;13.95;9.80;;;;;;;25.96;45.30;94240.34;5035483;28;20048;-92
2021/05/25 08:08:04;;;;;;;15.68;9.88;;;;;;;26.05;45.52;94231.88;5034892;28;20044;-84
2021/05/25 08:10:30;;;;;;;14.85;10.48;;;;;;;25.74;46.52;94249.44;5035292;28;20033;-91
2021/05/25 08:12:56;;;;;;;14.55;10.70;;;;;;;25.70;46.45;94248.63;5037792;28;20036;-91
2021/05/25 08:15:23;;;;;;;13.73;10.60;;;;;;;25.81;45.69;94244.06;5053346;28;20025;-91
2021/05/25 08:17:55;;;;;;;12.85;11.23;;;;;;;25.50;48.13;94244.53;5032510;28;20759;-92
2021/05/25 08:20:21;;;;;;;17.02;10.23;;;;;;;25.44;47.65;94204.28;5033152;28;20036;-90
2021/05/25 08:22:55;;;;;;;17.35;10.32;;;;;;;25.55;46.94;94230.72;5033233;28;20045;-88
2021/05/25 08:25:25;;;;;;;15.40;12.38;;;;;;;25.53;47.58;94222.13;5033899;28;20556;-91
2021/05/25 08:27:52;;;;;;;16.73;11.80;;;;;;;25.27;47.81;94210.28;5036920;28;20021;-92
2021/05/25 08:30:20;;;;;;;19.35;10.50;;;;;;;25.63;46.75;94235.81;5032414;28;20072;-93
2021/05/25 08:32:46;;;;;;;15.68;11.35;;;;;;;25.50;47.28;94231.00;5031178;28;20473;-88
2021/05/25 08:35:12;;;;;;;12.82;11.18;;;;;;;25.25;48.08;94236.94;5047906;28;20044;-93
2021/05/25 08:37:38;;;;;;;17.05;10.95;;;;;;;25.43;48.46;94235.19;5034014;28;20064;-91
2021/05/25 08:40:06;;;;;;;22.45;12.02;;;;;;;25.69;48.02;94225.41;5033285;28;20445;-91
2021/05/25 08:42:32;;;;;;;14.23;10.40;;;;;;;25.78;48.18;94228.59;5033243;28;20466;-90
2021/05/25 08:44:57;;;;;;;12.40;10.82;;;;;;;25.77;46.61;94213.50;5034178;28;20064;-92
2021/05/25 08:47:23;;;;;;;17.30;11.85;;;;;;;25.76;47.29;94239.00;5033054;28;20048;-90
2021/05/25 08:49:49;;;;;;;20.23;12.60;;;;;;;25.73;48.44;94231.63;5033191;28;20043;-88
2021/05/25 08:52:15;;;;;;;17.90;11.55;;;;;;;26.13;46.56;94239.72;5038058;28;20434;-90
2021/05/25 08:54:43;;;;;;;21.73;10.88;;;;;;;25.99;46.84;94225.28;5035141;28;20109;-92
2021/05/25 08:57:10;;;;;;;19.73;12.35;;;;;;;25.98;46.00;94216.38;5034373;28;20059;-87
2021/05/25 08:59:36;;;;;;;19.70;11.13;;;;;;;25.73;47.23;94199.94;5032430;28;20055;-91
2021/05/25 09:02:03;;;;;;;17.65;11.82;;;;;;;25.86;47.05;94225.56;5038448;28;20045;-91
2021/05/25 09:05:01;;;;;;;14.27;10.98;;;;;;;25.57;47.84;94222.97;5031540;28;20041;-89
2021/05/25 09:07:41;;;;;;;17.15;12.00;;;;;;;25.62;47.32;94223.41;5031816;28;20045;-88
2021/05/25 09:10:10;;;;;;;16.02;12.00;;;;;;;25.58;47.95;94206.38;5032836;28;20052;-90
2021/05/25 09:12:38;;;;;;;17.38;11.77;;;;;;;25.33;48.24;94225.03;5034577;28;20055;-88
2021/05/25 09:15:04;;;;;;;26.48;13.68;;;;;;;25.14;48.71;94208.22;5033538;28;20043;-89
2021/05/25 09:17:30;;;;;;;16.63;12.75;;;;;;;25.16;48.58;94206.72;5032427;28;20403;-89
2021/05/25 09:19:57;;;;;;;16.67;12.40;;;;;;;25.24;48.77;94211.03;5032695;28;20037;-89
2021/05/25 09:22:34;;;;;;;15.70;11.75;;;;;;;25.43;48.62;94216.25;5032276;28;20037;-92
2021/05/25 09:25:18;;;;;;;13.82;11.73;;;;;;;25.11;48.69;94190.81;5039413;28;20025;-92
2021/05/25 09:27:56;;;;;;;16.13;11.48;;;;;;;25.28;49.22;94209.16;5037805;28;20569;-90
2021/05/25 09:30:25;;;;;;;15.30;12.85;;;;;;;25.27;48.57;94185.94;5033004;28;20120;-90
2021/05/25 09:32:53;;;;;;;18.98;12.20;;;;;;;25.41;48.93;94186.06;5031692;28;20068;-90
2021/05/25 09:35:23;;;;;;;22.90;12.60;;;;;;;25.69;48.64;94206.47;5033111;28;20122;-89
2021/05/25 09:37:54;;;;;;;15.85;12.30;;;;;;;25.73;47.48;94209.97;5032078;28;20053;-91
2021/05/25 09:40:24;;;;;;;18.88;12.18;;;;;;;25.56;47.88;94205.22;5034038;28;20025;-89
2021/05/25 09:42:53;;;;;;;14.32;12.75;;;;;;;25.37;48.02;94193.38;5037495;28;20029;-88
2021/05/25 09:45:19;;;;;;;18.95;11.82;;;;;;;25.18;48.58;94201.69;5031832;28;20507;-92
2021/05/25 09:47:53;;;;;;;16.75;12.20;;;;;;;25.12;48.93;94202.41;5032422;28;20044;-91
2021/05/25 09:50:21;;;;;;;16.65;13.18;;;;;;;25.27;48.98;94209.50;5030456;28;20697;-92
2021/05/25 09:53:06;;;;;;;17.98;13.15;;;;;;;24.92;49.46;94189.03;5029579;28;20041;-89
2021/05/25 09:55:53;;;;;;;17.55;12.93;;;;;;;24.70;50.42;94191.84;5045957;28;20048;-89
2021/05/25 09:58:23;;;;;;;17.83;12.25;;;;;;;24.71;50.09;94193.41;5032667;28;20040;-89
2021/05/25 10:00:49;;;;;;;18.77;13.30;;;;;;;24.56;50.63;94216.78;5035100;28;20014;-90
2021/05/25 10:03:23;;;;;;;16.95;13.30;;;;;;;24.44;51.12;94179.94;5029582;28;20056;-91
2021/05/25 10:05:51;;;;;;;20.85;13.05;;;;;;;24.81;49.84;94200.88;5048453;28;20057;-90
2021/05/25 10:08:23;;;;;;;17.75;11.85;;;;;;;24.58;50.89;94207.13;5023660;28;20045;-89
2021/05/25 10:10:55;;;;;;;15.32;12.73;;;;;;;24.79;50.69;94192.34;5030900;28;20055;-91
2021/05/25 10:13:23;;;;;;;20.10;13.00;;;;;;;24.82;51.50;94180.81;5035188;28;20135;-93
2021/05/25 10:15:49;;;;;;;16.42;11.50;;;;;;;24.81;50.50;94176.53;5034912;28;20365;-88
2021/05/25 10:20:46;;;;;;;15.05;12.50;;;;;;;24.66;51.66;94161.31;5033069;28;20047;-90
2021/05/25 10:23:12;;;;;;;17.25;12.60;;;;;;;25.02;51.21;94176.81;5030133;28;20045;-93
2021/05/25 10:25:41;;;;;;;15.77;11.77;;;;;;;24.98;50.77;94165.16;5030390;28;20045;-89
2021/05/25 10:28:12;;;;;;;17.80;12.13;;;;;;;24.73;51.43;94132.41;5032164;28;20021;-89
2021/05/25 10:30:49;;;;;;;16.15;11.85;;;;;;;25.16;51.01;94149.91;5033010;28;20501;-90
2021/05/25 10:33:17;;;;;;;18.33;13.25;;;;;;;25.06;50.60;94150.59;5031848;28;20094;-87
2021/05/25 10:35:53;;;;;;;17.35;12.30;;;;;;;25.24;51.21;94146.13;5033134;28;20045;-90
2021/05/25 10:38:21;;;;;;;17.90;13.55;;;;;;;25.28;50.14;94135.31;5035097;28;20061;-91
2021/05/25 10:40:50;;;;;;;14.68;12.15;;;;;;;25.34;50.05;94145.44;5035029;28;20102;-89
2021/05/25 10:43:34;;;;;;;14.55;11.43;;;;;;;25.43;50.11;94143.19;5028930;28;20074;-89
2021/05/25 10:46:12;;;;;;;18.60;11.38;;;;;;;25.61;50.24;94142.63;5038761;28;20028;-89
2021/05/25 10:49:02;;;;;;;12.85;11.55;;;;;;;25.77;49.99;94143.09;5025195;28;20068;-91
2021/05/25 10:51:49;;;;;;;17.35;11.68;;;;;;;26.08;50.10;94145.25;5035296;28;20037;-90
2021/05/25 10:54:25;;;;;;;17.42;11.70;;;;;;;25.91;48.20;94116.13;5032338;28;20058;-93
2021/05/25 10:56:54;;;;;;;11.57;9.93;;;;;;;25.96;48.90;94150.97;5050460;28;20041;-91
2021/05/25 10:59:20;;;;;;;12.63;10.18;;;;;;;26.36;48.87;94143.88;5030370;28;20045;-88
2021/05/25 11:01:57;;;;;;;12.10;9.60;;;;;;;26.50;47.80;94138.53;5034038;28;20033;-87
2021/05/25 11:04:24;;;;;;;11.80;9.45;;;;;;;26.29;46.71;94129.13;5034163;28;20057;-90
2021/05/25 11:06:50;;;;;;;12.63;10.45;;;;;;;26.26;46.58;94119.06;5053330;28;20026;-91
2021/05/25 11:09:27;;;;;;;16.13;10.82;;;;;;;26.43;46.67;94122.25;5052086;28;20612;-92
2021/05/25 11:12:12;;;;;;;17.20;10.88;;;;;;;26.27;48.47;94122.56;5034822;28;20040;-88
2021/05/25 11:14:57;;;;;;;15.98;10.13;;;;;;;26.38;47.94;94114.50;5049422;28;20045;-90
2021/05/25 11:17:34;;;;;;;11.43;10.23;;;;;;;26.29;47.54;94110.16;5037790;28;20290;-88
2021/05/25 11:20:29;;;;;;;14.43;10.88;;;;;;;26.30;47.90;94111.72;5036129;28;20033;-91
2021/05/25 11:22:54;;;;;;;15.32;11.70;;;;;;;26.18;47.86;94100.44;5035577;28;21464;-92
2021/05/25 11:25:40;;;;;;;13.55;10.32;;;;;;;26.43;47.98;94095.16;5032751;28;20063;-89
2021/05/25 11:28:05;;;;;;;13.93;11.25;;;;;;;26.49;48.51;94096.31;5034326;28;20031;-88